Wickes, AR

6:11 AM CST on February 21, 2017 (GMT -0600)
DeQueen Lake | | Change Station

Elev 607 ft 34.10 °N, 94.34 °W | Updated 0 second ago

Rain
Rain
57.2 °F
Feels Like 57.2 °F
N
0.4
Wind Variable Wind from SW
Gusts 2.5 mph

Today
High -- | Low -- °F
--% Chance of Precip.
Yesterday
High -- | Low -- °F
Precip. -- in
Pressure 29.87 in
Visibility 6.0 miles
Clouds Overcast 600 ft
Dew Point 44 °F
Humidity 61%
Rainfall 0.11 in
Snow Depth Not available.
6:55 AM 6:06 PM
Waning Crescent, 26% visible
METAR KDEQ 211153Z AUTO 00000KT 6SM BR OVC006 14/14 A2987 RMK AO2 CIG 005V010 SLP113 60001 70014 T01390139 10139 20133 55002
Pressure 29.87 in
Visibility 6.0 miles
Clouds Overcast 600 ft
Dew Point 44 °F
Humidity 61%
Rainfall 0.11 in
Snow Depth Not available.
6:55 AM 6:06 PM
Waning Crescent, 26% visible
METAR KDEQ 211153Z AUTO 00000KT 6SM BR OVC006 14/14 A2987 RMK AO2 CIG 005V010 SLP113 60001 70014 T01390139 10139 20133 55002

Get Your Daily Forecast Email!

Thanks for signing up!

Be on the lookout for a verification email in your inbox.

You'll start receiving the daily forecast at 8 AM.

×

10-Day Weather Forecast

Almanac

Astronomy

Feb. 21, 2017 Rise Set
Actual Time
Civil Twilight
Nautical Twilight
Astronomical Twilight
Moon
Length of Visible Light
Length of Day
Tomorrow will be .
, % of the Moon is Illuminated

Today's Extremes

State Highs State Lows

Community

WunderPhotos

Upload Photos

1,962,540 photos uploaded!

WunderBlog® & News

Nearby

Air Quality

  Air Quality AQ Index Pollutant
Not available.

Snow Depth

Station Depth Elevation

Earthquake Activity

City Distance Mag. Time & Date
Minimum magnitude displayed is 2.5.

Coastal Water Temperatures

Place Temperature

Stations

Nearby Weather Stations

Station Location Temp. Windchill Dew Point Humidity Wind Precip. Elev Updated Type
                   

Watches & Warnings

There are currently no watches in effect.